createdAt,value
2018-09-13T00:00:40.595Z,10.63
2018-09-13T00:05:35.104Z,11.23
2018-09-13T00:10:29.584Z,11.23
2018-09-13T00:15:24.111Z,12.20
2018-09-13T00:20:18.592Z,13.03
2018-09-13T00:25:13.120Z,13.77
2018-09-13T00:30:07.632Z,12.63
2018-09-13T00:35:02.099Z,12.23
2018-09-13T00:39:56.667Z,12.83
2018-09-13T00:44:51.192Z,13.90
2018-09-13T00:49:45.689Z,13.23
2018-09-13T00:54:40.347Z,14.33
2018-09-13T00:59:34.837Z,13.57
2018-09-13T01:04:29.464Z,14.53
2018-09-13T01:09:23.962Z,14.80
2018-09-13T01:14:18.583Z,13.97
2018-09-13T01:19:13.167Z,15.57
2018-09-13T01:24:07.801Z,16.57
2018-09-13T01:29:02.353Z,18.40
2018-09-13T01:33:56.845Z,19.77
2018-09-13T01:38:51.372Z,20.83
2018-09-13T01:43:45.969Z,21.43
2018-09-13T01:48:40.482Z,21.13
2018-09-13T01:53:34.960Z,22.27
2018-09-13T01:58:29.468Z,22.53
2018-09-13T02:03:24.415Z,23.13
2018-09-13T02:08:18.924Z,22.10
2018-09-13T02:13:13.483Z,23.23
2018-09-13T02:18:08.052Z,21.27
2018-09-13T02:23:02.554Z,22.97
2018-09-13T02:27:57.630Z,22.00
2018-09-13T02:32:52.800Z,21.50
2018-09-13T02:37:47.412Z,21.07
2018-09-13T02:42:42.063Z,22.60
2018-09-13T02:47:36.798Z,21.20
2018-09-13T02:52:31.372Z,21.10
2018-09-13T02:57:25.929Z,19.10
2018-09-13T03:02:20.622Z,19.77
2018-09-13T03:07:15.146Z,21.87
2018-09-13T03:12:09.669Z,22.00
2018-09-13T03:17:04.376Z,22.53
2018-09-13T03:21:58.985Z,23.77
2018-09-13T03:26:53.606Z,24.17
2018-09-13T03:31:48.110Z,24.90
2018-09-13T03:36:42.858Z,25.23
2018-09-13T03:41:37.350Z,25.70
2018-09-13T03:46:31.983Z,25.80
2018-09-13T03:51:26.499Z,26.17
2018-09-13T03:56:21.203Z,25.03
2018-09-13T04:01:15.732Z,25.87
2018-09-13T04:06:10.356Z,23.60
2018-09-13T04:11:04.831Z,24.37
2018-09-13T04:15:59.380Z,23.97
2018-09-13T04:20:53.824Z,21.87
2018-09-13T04:25:48.357Z,21.63
2018-09-13T04:30:42.890Z,20.33
2018-09-13T04:35:37.460Z,18.63
2018-09-13T04:40:32.140Z,17.67
2018-09-13T04:45:26.878Z,16.70
2018-09-13T04:50:21.400Z,16.67
2018-09-13T04:55:15.900Z,16.03
2018-09-13T05:00:10.576Z,14.40
2018-09-13T05:05:05.659Z,14.23
2018-09-13T05:10:00.148Z,15.00
2018-09-13T05:14:54.624Z,14.60
2018-09-13T05:19:49.458Z,15.20
2018-09-13T05:24:43.969Z,15.50
2018-09-13T05:29:38.447Z,15.27
2018-09-13T05:34:32.936Z,13.90
2018-09-13T05:39:27.962Z,14.80
2018-09-13T05:44:22.508Z,15.07
2018-09-13T05:49:17.132Z,15.20
2018-09-13T05:54:11.866Z,14.03
2018-09-13T05:59:06.350Z,14.97
2018-09-13T06:04:00.954Z,14.40
2018-09-13T06:08:55.620Z,13.40
2018-09-13T06:13:50.603Z,13.70
2018-09-13T06:18:45.548Z,13.60
2018-09-13T06:23:40.018Z,14.13
2018-09-13T06:28:34.781Z,13.63
2018-09-13T06:33:29.266Z,13.33
2018-09-13T06:38:24.010Z,14.10
2018-09-13T06:43:18.867Z,14.30
2018-09-13T06:48:13.515Z,15.00
2018-09-13T06:53:08.020Z,14.27
2018-09-13T06:58:02.775Z,15.27
2018-09-13T07:02:57.672Z,15.10
2018-09-13T07:07:52.159Z,15.03
2018-09-13T07:12:46.815Z,16.63
2018-09-13T07:17:41.294Z,16.43
2018-09-13T07:22:36.374Z,17.00
2018-09-13T07:27:31.039Z,16.60
2018-09-13T07:32:25.540Z,16.17
2018-09-13T07:37:20.231Z,16.23
2018-09-13T07:42:14.828Z,16.67
2018-09-13T07:47:09.546Z,17.40
2018-09-13T07:52:04.070Z,17.57
2018-09-13T07:56:58.559Z,16.67
2018-09-13T08:01:53.196Z,18.10
2018-09-13T08:06:47.976Z,18.03
2018-09-13T08:11:42.731Z,19.77
2018-09-13T08:16:37.554Z,18.40
2018-09-13T08:21:32.170Z,18.73
2018-09-13T08:26:27.248Z,18.67
2018-09-13T08:31:21.911Z,18.63
2018-09-13T08:36:16.367Z,19.50
2018-09-13T08:41:10.984Z,18.43
2018-09-13T08:46:05.472Z,19.73
2018-09-13T08:50:59.962Z,19.63
2018-09-13T08:55:54.432Z,18.90
2018-09-13T09:00:48.957Z,19.40
2018-09-13T09:05:43.614Z,18.10
2018-09-13T09:10:38.127Z,17.23
2018-09-13T09:15:32.632Z,16.70
2018-09-13T09:20:27.138Z,15.27
2018-09-13T09:25:21.648Z,15.30
2018-09-13T09:30:16.279Z,14.13
2018-09-13T09:35:10.776Z,12.27
2018-09-13T09:40:05.718Z,11.57
2018-09-13T09:45:00.192Z,11.07
2018-09-13T09:49:54.765Z,11.10
2018-09-13T09:54:49.374Z,10.90
2018-09-13T09:59:44.737Z,10.87
2018-09-13T10:04:39.443Z,10.73
2018-09-13T10:09:34.110Z,10.43
2018-09-13T10:14:28.771Z,9.70
2018-09-13T10:19:28.776Z,8.73
2018-09-13T10:24:28.695Z,8.93
2018-09-13T10:29:28.496Z,8.73
2018-09-13T10:34:28.537Z,9.07
2018-09-13T10:39:28.332Z,8.80
2018-09-13T10:44:27.903Z,8.43
2018-09-13T10:49:28.022Z,8.63
2018-09-13T10:54:29.541Z,9.03
2018-09-13T10:59:24.699Z,8.33
2018-09-13T11:04:19.370Z,10.17
2018-09-13T11:09:15.214Z,10.17
2018-09-13T11:14:18.340Z,10.77
2018-09-13T11:19:13.184Z,11.67
2018-09-13T11:24:07.937Z,11.90
2018-09-13T11:29:02.761Z,12.77
2018-09-13T11:33:57.227Z,14.27
2018-09-13T11:38:51.685Z,14.43
2018-09-13T11:43:46.386Z,13.90
2018-09-13T11:48:40.881Z,16.67
2018-09-13T11:53:35.517Z,17.67
2018-09-13T11:58:31.150Z,15.93
2018-09-13T12:03:25.630Z,12.40
2018-09-13T12:08:20.209Z,11.97
2018-09-13T12:13:14.712Z,15.57
2018-09-13T12:18:09.496Z,15.70
2018-09-13T12:23:04.337Z,17.47
2018-09-13T12:27:58.891Z,15.57
2018-09-13T12:32:53.480Z,17.30
2018-09-13T12:37:48.405Z,17.33
2018-09-13T12:42:43.237Z,16.40
2018-09-13T12:47:38.383Z,16.10
2018-09-13T12:52:33.199Z,13.27
2018-09-13T12:57:27.694Z,13.93
2018-09-13T13:02:22.166Z,12.60
2018-09-13T13:07:19.009Z,10.47
2018-09-13T13:12:13.540Z,10.07
2018-09-13T13:17:08.258Z,8.57
2018-09-13T13:22:03.255Z,9.40
2018-09-13T13:26:57.830Z,8.97
2018-09-13T13:31:52.769Z,9.00
2018-09-13T13:36:47.276Z,7.97
2018-09-13T13:41:41.959Z,7.70
2018-09-13T13:46:37.483Z,7.40
2018-09-13T13:51:32.960Z,8.10
2018-09-13T13:56:29.120Z,8.00
2018-09-13T14:01:23.697Z,9.73
2018-09-13T14:06:18.174Z,9.07
2018-09-13T14:11:12.758Z,8.90
2018-09-13T14:16:07.672Z,9.10
2018-09-13T14:21:02.194Z,6.47
2018-09-13T14:25:56.912Z,7.80
2018-09-13T14:30:51.489Z,6.97
2018-09-13T14:35:46.140Z,7.73
2018-09-13T14:40:40.692Z,7.47
2018-09-13T14:45:35.376Z,6.33
2018-09-13T14:50:30.563Z,5.90
2018-09-13T14:55:25.226Z,6.57
2018-09-13T15:00:20.042Z,6.70
2018-09-13T15:05:14.623Z,7.50
2018-09-13T15:10:09.753Z,8.53
2018-09-13T15:15:04.772Z,8.37
2018-09-13T15:19:59.786Z,9.07
2018-09-13T15:24:55.447Z,7.77
2018-09-13T15:29:50.438Z,7.67
2018-09-13T15:34:46.014Z,8.03
2018-09-13T15:39:40.546Z,8.10
2018-09-13T15:44:35.743Z,7.60
2018-09-13T15:49:30.391Z,7.90
2018-09-13T15:54:25.248Z,7.63
2018-09-13T15:59:20.259Z,7.60
2018-09-13T16:04:15.967Z,7.67
2018-09-13T16:09:11.093Z,7.87
2018-09-13T16:14:06.062Z,7.60
2018-09-13T16:19:01.099Z,8.63
2018-09-13T16:23:55.973Z,8.00
2018-09-13T16:28:50.685Z,9.00
2018-09-13T16:33:45.737Z,8.20
2018-09-13T16:38:48.450Z,8.77
2018-09-13T16:43:48.549Z,8.97
2018-09-13T16:48:44.932Z,8.27
2018-09-13T16:53:39.768Z,8.47
2018-09-13T16:58:34.619Z,8.73
2018-09-13T17:03:29.342Z,8.67
2018-09-13T17:08:24.201Z,8.70
2018-09-13T17:13:18.888Z,8.73
2018-09-13T17:18:13.454Z,9.20
2018-09-13T17:23:08.356Z,9.43
2018-09-13T17:28:03.070Z,9.17
2018-09-13T17:32:57.910Z,9.90
2018-09-13T17:37:52.889Z,9.77
2018-09-13T17:42:47.384Z,9.67
2018-09-13T17:47:42.073Z,10.43
2018-09-13T17:52:40.495Z,9.73
2018-09-13T17:57:36.739Z,9.90
2018-09-13T18:02:32.607Z,8.87
2018-09-13T18:07:28.503Z,8.77
2018-09-13T18:12:26.176Z,8.50
2018-09-13T18:17:21.664Z,8.60
2018-09-13T18:22:19.552Z,8.40
2018-09-13T18:27:17.263Z,9.10
2018-09-13T18:32:14.875Z,8.53
2018-09-13T18:37:11.439Z,8.60
2018-09-13T18:42:08.673Z,8.60
2018-09-13T18:47:04.403Z,9.03
2018-09-13T18:51:58.917Z,8.37
2018-09-13T18:56:54.476Z,8.40
2018-09-13T19:01:48.950Z,9.23
2018-09-13T19:06:43.416Z,8.93
2018-09-13T19:11:37.960Z,9.47
2018-09-13T19:16:32.626Z,9.03
2018-09-13T19:21:27.537Z,9.00
2018-09-13T19:26:22.490Z,9.90
2018-09-13T19:31:17.188Z,10.20
2018-09-13T19:36:11.650Z,9.67
2018-09-13T19:41:06.277Z,10.80
2018-09-13T19:46:01.048Z,10.73
2018-09-13T19:50:55.593Z,10.73
2018-09-13T19:55:50.273Z,10.67
2018-09-13T20:00:44.752Z,11.07
2018-09-13T20:05:39.582Z,13.63
2018-09-13T20:10:35.184Z,12.90
2018-09-13T20:15:30.068Z,13.23
2018-09-13T20:20:25.086Z,13.50
2018-09-13T20:25:56.192Z,14.07
2018-09-13T20:30:51.151Z,14.57
2018-09-13T20:35:45.925Z,15.73
2018-09-13T20:40:41.183Z,15.60
2018-09-13T20:45:36.314Z,16.37
2018-09-13T20:50:31.386Z,17.20
2018-09-13T20:55:27.833Z,17.83
2018-09-13T21:00:22.826Z,18.23
2018-09-13T21:05:18.115Z,21.73
2018-09-13T21:10:13.405Z,19.37
2018-09-13T21:15:08.789Z,20.23
2018-09-13T21:20:03.680Z,19.47
2018-09-13T21:24:59.050Z,19.43
2018-09-13T21:29:54.566Z,20.87
2018-09-13T21:34:49.235Z,21.47
2018-09-13T21:39:44.487Z,22.10
2018-09-13T21:44:39.389Z,23.13
2018-09-13T21:49:34.268Z,25.83
2018-09-13T21:54:29.748Z,25.93
2018-09-13T21:59:24.653Z,26.97
2018-09-13T22:04:19.480Z,26.87
2018-09-13T22:09:16.469Z,27.37
2018-09-13T22:14:11.165Z,28.30
2018-09-13T22:19:05.901Z,27.73
2018-09-13T22:24:01.069Z,29.23
2018-09-13T22:28:57.151Z,30.97
2018-09-13T22:33:52.392Z,32.33
2018-09-13T22:38:47.322Z,33.23
2018-09-13T22:43:47.602Z,31.90
2018-09-13T22:48:42.302Z,31.03
2018-09-13T22:53:38.622Z,30.67
2018-09-13T22:58:34.562Z,30.40
2018-09-13T23:03:29.882Z,30.87
2018-09-13T23:08:24.934Z,33.03
2018-09-13T23:13:20.629Z,33.37
2018-09-13T23:18:15.788Z,34.57
2018-09-13T23:23:11.224Z,32.77
2018-09-13T23:28:06.294Z,34.50
2018-09-13T23:33:00.740Z,36.80
2018-09-13T23:37:55.202Z,38.47
2018-09-13T23:42:49.855Z,41.97
2018-09-13T23:47:44.536Z,42.03
2018-09-13T23:52:39.086Z,41.97
2018-09-13T23:57:33.650Z,42.20
